Time;durP1;ratioP1;P1;durP2;ratioP2;P2;SDS_P1;SDS_P2;PMS_P1;PMS_P2;Temp;Humidity;BMP_temperature;BMP_pressure;BME280_temperature;BME280_humidity;BME280_pressure;Samples;Min_cycle;Max_cycle;Signal;HPM_P1;HPM_P2
2022/02/11 00:00:02;;;;;;;4.43;1.48;;;;;;;3.20;100.00;99242.59;4941986;28;20102;-55
2022/02/11 00:08:33;;;;;;;4.93;1.48;;;;;;;2.89;100.00;99239.94;4966737;28;20089;-54
2022/02/11 00:11:29;;;;;;;3.70;1.17;;;;;;;2.63;100.00;99195.41;4949475;28;20138;-52
2022/02/11 00:14:14;;;;;;;4.32;1.23;;;;;;;2.84;100.00;99236.41;4948776;28;20144;-51
2022/02/11 00:16:58;;;;;;;6.35;1.50;;;;;;;2.95;100.00;99226.84;4949760;28;20843;-53
2022/02/11 00:24:45;;;;;;;7.70;1.58;;;;;;;2.75;100.00;99225.94;4983094;28;20057;-55
2022/02/11 00:33:51;;;;;;;7.10;2.30;;;;;;;2.72;100.00;99228.53;4904710;29;20179;-54
2022/02/11 00:36:50;;;;;;;7.47;2.08;;;;;;;2.79;100.00;99231.19;4908041;29;20067;-52
2022/02/11 01:06:44;;;;;;;8.68;1.58;;;;;;;2.79;100.00;99223.34;4912068;29;20136;-52
2022/02/11 01:09:29;;;;;;;7.40;2.03;;;;;;;2.76;100.00;99214.59;4908631;29;20615;-52
2022/02/11 01:12:15;;;;;;;8.55;1.58;;;;;;;2.47;100.00;99164.84;4895596;29;20512;-55
2022/02/11 01:14:59;;;;;;;5.55;1.77;;;;;;;2.83;100.00;99193.69;4898278;29;20479;-53
2022/02/11 01:17:58;;;;;;;4.00;1.63;;;;;;;2.96;100.00;99202.41;4893611;29;20050;-59
2022/02/11 01:20:56;;;;;;;5.75;2.13;;;;;;;2.99;100.00;99207.66;4893577;29;20051;-52
2022/02/11 01:23:57;;;;;;;4.80;2.10;;;;;;;2.81;100.00;99190.19;4898950;29;20090;-53
2022/02/11 01:56:18;;;;;;;5.30;1.02;;;;;;;2.65;100.00;99200.63;4877892;29;20469;-56
2022/02/11 02:14:32;;;;;;;2.83;0.90;;;;;;;2.89;100.00;99200.69;4892878;29;20088;-55
2022/02/11 02:21:12;;;;;;;2.60;0.80;;;;;;;2.88;100.00;99189.31;4906399;29;20585;-53
2022/02/11 02:50:10;;;;;;;7.63;1.75;;;;;;;3.24;100.00;99191.09;4974270;28;20077;-54
2022/02/11 02:59:03;;;;;;;3.55;0.93;;;;;;;3.16;100.00;99183.22;4927550;29;20054;-51
2022/02/11 03:17:38;;;;;;;6.47;1.30;;;;;;;3.17;100.00;99173.63;4908937;29;20055;-52
2022/02/11 03:35:17;;;;;;;5.75;1.23;;;;;;;2.87;100.00;99179.72;4960026;28;20054;-53
2022/02/11 04:20:19;;;;;;;6.18;1.88;;;;;;;2.59;100.00;99161.34;4833163;29;20110;-55
2022/02/11 04:56:54;;;;;;;6.82;1.60;;;;;;;3.08;100.00;99178.84;4969244;28;20052;-60
2022/02/11 04:59:40;;;;;;;4.30;1.98;;;;;;;3.07;100.00;99190.19;5008511;28;20064;-56
2022/02/11 05:02:30;;;;;;;5.97;1.60;;;;;;;3.22;100.00;99188.47;4983162;28;20100;-54
2022/02/11 05:05:17;;;;;;;7.28;1.63;;;;;;;3.37;100.00;99190.19;4959993;28;20494;-55
2022/02/11 05:08:03;;;;;;;5.93;1.60;;;;;;;3.53;100.00;99186.69;4979686;28;20048;-54
2022/02/11 05:10:50;;;;;;;5.93;1.85;;;;;;;3.53;100.00;99184.06;4974040;28;20081;-60
2022/02/11 05:13:38;;;;;;;5.72;1.23;;;;;;;3.56;100.00;99195.41;4989074;28;20053;-53
2022/02/11 05:16:22;;;;;;;7.18;1.80;;;;;;;3.41;100.00;99179.69;4939515;28;20186;-50
2022/02/11 05:19:07;;;;;;;8.57;1.70;;;;;;;3.39;100.00;99188.44;4954872;28;20058;-65
2022/02/11 05:21:51;;;;;;;8.00;2.17;;;;;;;3.60;100.00;99194.53;4970037;28;20049;-57
2022/02/11 05:24:36;;;;;;;8.05;2.00;;;;;;;3.48;100.00;99196.31;4970956;28;20054;-56
2022/02/11 05:27:20;;;;;;;6.97;1.60;;;;;;;3.46;100.00;99190.19;5003113;28;20052;-58
2022/02/11 05:30:06;;;;;;;5.70;2.00;;;;;;;3.23;100.00;99173.59;5007898;28;20104;-70
2022/02/11 05:32:51;;;;;;;10.43;1.98;;;;;;;3.34;100.00;99190.19;4941422;28;20066;-61
2022/02/11 05:35:38;;;;;;;6.40;1.55;;;;;;;3.41;100.00;99194.56;4967834;28;20054;-56
2022/02/11 05:38:22;;;;;;;6.95;2.35;;;;;;;3.08;100.00;99140.44;4970493;28;20049;-57
2022/02/11 05:41:07;;;;;;;8.60;2.28;;;;;;;3.43;100.00;99198.94;4982348;28;20099;-55
2022/02/11 05:43:51;;;;;;;6.68;1.75;;;;;;;3.10;100.00;99198.06;4982444;28;20117;-57
2022/02/11 05:46:36;;;;;;;9.57;1.77;;;;;;;3.16;100.00;99203.28;4976737;28;20049;-53
2022/02/11 05:49:21;;;;;;;10.23;2.05;;;;;;;3.31;100.00;99204.19;4983873;28;20060;-61
2022/02/11 05:52:07;;;;;;;11.73;1.95;;;;;;;3.45;100.00;99201.56;4946030;28;20383;-57
2022/02/11 05:54:52;;;;;;;5.40;1.83;;;;;;;3.59;100.00;99203.28;4941110;28;20108;-54
2022/02/11 05:57:36;;;;;;;9.30;2.60;;;;;;;3.48;100.00;99205.03;4984520;28;20474;-55
2022/02/11 06:00:21;;;;;;;8.60;2.40;;;;;;;3.27;100.00;99193.69;4955704;28;20706;-57
2022/02/11 06:03:07;;;;;;;7.95;2.08;;;;;;;3.10;100.00;99204.19;4962422;28;20415;-54
2022/02/11 06:05:52;;;;;;;7.22;1.75;;;;;;;3.06;100.00;99196.31;4975779;28;20050;-54
2022/02/11 06:08:37;;;;;;;6.80;1.38;;;;;;;2.80;100.00;99167.50;4985693;28;20096;-61
2022/02/11 06:11:21;;;;;;;6.07;1.85;;;;;;;3.05;100.00;99157.91;4956589;28;20134;-56
2022/02/11 06:14:06;;;;;;;7.40;2.20;;;;;;;3.53;100.00;99210.28;4962050;28;20050;-51
2022/02/11 06:16:52;;;;;;;4.93;1.73;;;;;;;3.77;100.00;99211.09;4972386;28;20050;-53
2022/02/11 06:19:37;;;;;;;6.40;1.70;;;;;;;3.66;100.00;99173.56;4963484;28;20069;-57
2022/02/11 06:22:23;;;;;;;6.43;1.60;;;;;;;3.75;100.00;99209.34;4961942;28;20532;-54
2022/02/11 06:25:08;;;;;;;9.15;1.80;;;;;;;3.50;100.00;99205.03;4946926;28;20116;-53
2022/02/11 06:27:53;;;;;;;6.55;1.55;;;;;;;3.58;100.00;99204.16;4943255;28;20062;-58
2022/02/11 06:30:38;;;;;;;;;;;;;;;3.41;100.00;99205.03;4958686;28;20150;-57
2022/02/11 06:33:23;;;;;;;5.93;2.15;;;;;;;3.34;100.00;99205.91;4942581;28;19929;-63
2022/02/11 06:36:08;;;;;;;7.78;2.10;;;;;;;3.31;100.00;99206.78;4960625;28;20066;-60
2022/02/11 06:38:53;;;;;;;6.72;1.67;;;;;;;3.43;100.00;99203.28;4959891;28;20129;-54
2022/02/11 06:41:37;;;;;;;9.10;2.10;;;;;;;3.62;100.00;99205.00;4959743;28;20078;-53
2022/02/11 06:44:22;;;;;;;6.47;2.28;;;;;;;3.95;100.00;99216.31;4960069;28;20174;-55
2022/02/11 06:47:09;;;;;;;9.80;2.00;;;;;;;3.92;100.00;99207.59;4942615;28;20156;-61
2022/02/11 06:49:54;;;;;;;6.88;2.00;;;;;;;4.00;100.00;99203.19;4945518;28;20065;-53
2022/02/11 06:52:38;;;;;;;7.68;1.90;;;;;;;4.29;100.00;99214.44;4957644;28;20521;-56
2022/02/11 06:55:26;;;;;;;7.53;2.25;;;;;;;4.28;100.00;99216.19;4949472;28;20105;-50
2022/02/11 06:58:11;;;;;;;7.47;2.00;;;;;;;4.12;100.00;99214.50;4948923;28;20109;-54
2022/02/11 07:00:57;;;;;;;4.95;2.35;;;;;;;4.01;100.00;99213.69;4930008;28;20085;-60
2022/02/11 07:03:41;;;;;;;5.95;1.90;;;;;;;4.16;100.00;99218.00;4937647;28;20485;-56
2022/02/11 07:06:27;;;;;;;10.95;2.47;;;;;;;4.05;100.00;99212.78;4937484;28;20102;-52
2022/02/11 07:09:15;;;;;;;9.18;2.33;;;;;;;3.84;100.00;99218.06;4940401;28;20058;-54
2022/02/11 07:11:59;;;;;;;7.60;2.60;;;;;;;3.95;100.00;99221.53;4934640;28;20090;-62
2022/02/11 07:14:44;;;;;;;14.02;3.22;;;;;;;4.04;100.00;99218.03;4951086;28;20058;-61
2022/02/11 07:17:29;;;;;;;;;;;;;;;3.92;100.00;99221.53;4954120;28;20159;-62
2022/02/11 07:20:15;;;;;;;8.45;2.60;;;;;;;4.07;100.00;99215.38;4914958;29;20386;-67
2022/02/11 07:23:01;;;;;;;11.68;2.63;;;;;;;4.14;100.00;99217.09;4957788;28;20074;-61
2022/02/11 07:25:46;;;;;;;7.20;2.40;;;;;;;4.10;100.00;99213.63;4953851;28;20107;-58
2022/02/11 07:28:31;;;;;;;7.38;2.80;;;;;;;4.21;100.00;99213.59;4982703;28;20048;-61
2022/02/11 07:31:15;;;;;;;11.45;3.00;;;;;;;4.19;100.00;99215.34;4984536;28;20449;-59
2022/02/11 07:34:00;;;;;;;10.80;3.35;;;;;;;4.32;100.00;99217.06;4980809;28;20061;-62
2022/02/11 07:36:45;;;;;;;8.90;2.50;;;;;;;4.24;100.00;99210.97;4978604;28;20092;-60
2022/02/11 07:39:31;;;;;;;8.88;2.80;;;;;;;4.30;100.00;99209.19;4965677;28;20545;-66
2022/02/11 07:42:18;;;;;;;5.35;2.80;;;;;;;4.54;100.00;99184.56;4978695;28;20134;-60
2022/02/11 07:45:03;;;;;;;12.27;2.65;;;;;;;4.83;100.00;99201.88;4978248;28;20083;-58
2022/02/11 07:47:50;;;;;;;9.35;2.72;;;;;;;4.90;100.00;99207.97;4977577;28;20441;-62
2022/02/11 07:50:34;;;;;;;10.27;2.83;;;;;;;4.43;100.00;99196.84;4978083;28;20481;-63
2022/02/11 07:53:19;;;;;;;8.82;2.75;;;;;;;4.57;100.00;99198.56;4982984;28;20069;-70
2022/02/11 07:56:04;;;;;;;;;;;;;;;4.24;100.00;99164.59;4988169;28;20101;-61
2022/02/11 07:58:51;;;;;;;6.90;2.47;;;;;;;4.88;100.00;99199.25;4984167;28;19944;-67
2022/02/11 08:01:35;;;;;;;6.72;2.47;;;;;;;4.86;100.00;99198.38;4984280;28;20100;-63
2022/02/11 08:04:23;;;;;;;12.68;2.60;;;;;;;4.79;100.00;99189.66;4964994;28;20089;-67
2022/02/11 08:07:08;;;;;;;10.60;2.40;;;;;;;4.98;100.00;99187.78;4972563;28;20425;-68
2022/02/11 08:09:52;;;;;;;;;;;;;;;5.24;100.00;99190.19;4979140;28;20482;-62
2022/02/11 08:12:37;;;;;;;7.95;2.28;;;;;;;5.11;100.00;99155.28;4976507;28;20361;-62
2022/02/11 08:15:22;;;;;;;7.70;2.15;;;;;;;5.91;100.00;99188.72;4986578;28;20046;-61
2022/02/11 08:18:07;;;;;;;10.20;2.47;;;;;;;6.04;100.00;99177.16;4985483;28;20414;-61
2022/02/11 08:20:54;;;;;;;9.13;2.65;;;;;;;6.18;100.00;99183.16;4982769;28;20066;-63
2022/02/11 08:23:40;;;;;;;10.52;2.40;;;;;;;6.07;100.00;99183.28;4986853;28;20058;-61
2022/02/11 08:26:29;;;;;;;9.73;2.65;;;;;;;6.16;100.00;99193.69;4970011;28;20541;-63
2022/02/11 08:29:15;;;;;;;14.25;3.03;;;;;;;5.85;100.00;99192.28;4948193;29;20570;-63
2022/02/11 08:31:59;;;;;;;;;;;;;;;6.21;100.00;99191.88;4966759;28;20504;-62
2022/02/11 08:34:45;;;;;;;10.40;2.40;;;;;;;5.77;100.00;99191.47;4943277;28;19948;-64
2022/02/11 08:37:30;;;;;;;10.55;2.25;;;;;;;5.60;100.00;99182.00;4934825;28;20486;-65
2022/02/11 08:40:14;;;;;;;4.72;2.22;;;;;;;5.80;100.00;99167.75;4965059;28;20506;-59
2022/02/11 08:42:59;;;;;;;9.27;2.05;;;;;;;6.07;100.00;99203.44;4954748;28;20122;-63
2022/02/11 08:45:44;;;;;;;6.72;2.28;;;;;;;5.97;100.00;99197.41;4955654;28;20056;-64
2022/02/11 08:48:28;;;;;;;10.20;2.63;;;;;;;5.89;100.00;99190.50;4968663;28;20538;-61
2022/02/11 08:51:13;;;;;;;17.75;2.90;;;;;;;5.40;100.00;99132.25;4950155;28;20116;-61
2022/02/11 08:53:57;;;;;;;14.27;4.97;;;;;;;5.42;100.00;99142.75;4960268;28;20085;-62
2022/02/11 08:56:42;;;;;;;9.93;2.47;;;;;;;5.45;100.00;99183.00;4972965;28;20541;-62
2022/02/11 08:59:26;;;;;;;16.67;3.25;;;;;;;5.17;100.00;99163.09;4934195;28;20061;-62
2022/02/11 09:02:11;;;;;;;10.20;3.05;;;;;;;5.31;100.00;99182.28;4951368;28;20050;-62
2022/02/11 09:04:56;;;;;;;13.88;4.07;;;;;;;5.33;100.00;99177.00;4944371;28;20050;-66
2022/02/11 09:07:40;;;;;;;14.55;5.90;;;;;;;5.45;100.00;99171.66;4949543;28;20101;-60
2022/02/11 09:10:28;;;;;;;17.90;5.75;;;;;;;5.34;100.00;99170.88;4960200;28;20463;-64
2022/02/11 09:13:13;;;;;;;16.15;4.03;;;;;;;5.28;100.00;99187.56;4960363;28;20053;-60
2022/02/11 09:15:58;;;;;;;7.55;2.55;;;;;;;5.16;100.00;99176.25;4936696;28;20066;-61
2022/02/11 09:18:42;;;;;;;10.40;2.85;;;;;;;5.10;100.00;99179.81;4957870;28;20081;-62
2022/02/11 09:21:27;;;;;;;10.13;2.70;;;;;;;5.19;100.00;99153.47;4972334;28;20093;-60
2022/02/11 09:24:12;;;;;;;13.80;3.55;;;;;;;5.32;100.00;99191.91;4929849;28;20054;-64
2022/02/11 09:26:57;;;;;;;11.25;2.78;;;;;;;5.31;100.00;99184.91;4956798;28;20554;-63
2022/02/11 09:29:41;;;;;;;12.52;3.20;;;;;;;5.23;100.00;99163.06;4944695;28;20422;-62
2022/02/11 09:32:26;;;;;;;8.00;2.80;;;;;;;5.32;100.00;99168.25;4968057;28;20113;-65
2022/02/11 09:35:12;;;;;;;8.38;2.55;;;;;;;5.44;100.00;99172.50;4950666;28;20092;-61
2022/02/11 09:37:59;;;;;;;8.40;2.22;;;;;;;5.48;100.00;99172.47;4953052;28;20049;-64
2022/02/11 09:40:50;;;;;;;12.45;2.72;;;;;;;5.62;100.00;99174.97;4962450;28;20054;-61
2022/02/11 09:43:35;;;;;;;8.32;2.35;;;;;;;5.64;100.00;99175.81;4939322;28;20046;-62
2022/02/11 09:46:20;;;;;;;8.18;2.63;;;;;;;5.63;100.00;99146.03;4954793;28;20105;-62
2022/02/11 09:49:07;;;;;;;10.40;3.25;;;;;;;5.88;100.00;99136.13;4942747;29;20074;-62
2022/02/11 09:51:53;;;;;;;10.43;3.03;;;;;;;5.93;100.00;99173.81;4953296;28;20474;-63
2022/02/11 09:54:37;;;;;;;8.80;2.25;;;;;;;5.68;100.00;99183.66;4968234;28;20146;-63
2022/02/11 09:57:22;;;;;;;9.73;2.42;;;;;;;5.74;100.00;99169.59;4953211;28;20114;-64
2022/02/11 10:00:08;;;;;;;12.48;2.80;;;;;;;5.58;100.00;99171.47;4962025;28;20081;-63
2022/02/11 10:03:00;;;;;;;10.68;2.63;;;;;;;5.75;100.00;99176.59;4948773;28;20527;-62
2022/02/11 10:05:48;;;;;;;8.50;2.22;;;;;;;5.76;100.00;99162.53;4955887;28;20100;-59
2022/02/11 10:08:35;;;;;;;10.48;2.95;;;;;;;5.74;100.00;99170.44;4947807;28;20102;-62
2022/02/11 10:11:20;;;;;;;8.82;2.15;;;;;;;5.78;100.00;99168.66;4958665;28;20065;-64
2022/02/11 10:14:23;;;;;;;10.05;2.92;;;;;;;5.63;100.00;99137.25;4950450;28;20058;-62
2022/02/11 10:17:16;;;;;;;12.90;2.10;;;;;;;5.87;100.00;99168.59;4956306;28;20054;-61
2022/02/11 10:20:01;;;;;;;7.45;2.33;;;;;;;5.92;100.00;99175.56;4972509;28;20100;-61
2022/02/11 10:22:46;;;;;;;9.43;2.70;;;;;;;6.19;100.00;99172.59;4987207;28;20128;-60
2022/02/11 10:25:57;;;;;;;8.35;2.33;;;;;;;6.18;100.00;99159.47;4976452;28;20092;-62
2022/02/11 10:28:49;;;;;;;8.82;2.33;;;;;;;6.75;100.00;99172.72;4962799;28;20116;-61
2022/02/11 10:31:39;;;;;;;8.10;2.35;;;;;;;6.65;100.00;99168.47;4981720;28;20053;-66
2022/02/11 10:34:32;;;;;;;11.35;2.90;;;;;;;6.75;100.00;99170.09;4987223;28;20069;-62
2022/02/11 10:37:17;;;;;;;13.07;3.47;;;;;;;6.72;100.00;99159.59;4973130;28;20080;-61
2022/02/11 10:40:02;;;;;;;7.63;2.67;;;;;;;6.69;100.00;99141.19;4964496;28;20102;-62
2022/02/11 10:42:48;;;;;;;6.18;2.53;;;;;;;6.96;100.00;99179.44;4974241;28;20069;-62
2022/02/11 10:45:37;;;;;;;9.93;2.80;;;;;;;6.92;100.00;99167.22;4970013;28;20073;-65
2022/02/11 10:48:23;;;;;;;13.63;2.65;;;;;;;6.78;100.00;99170.06;4969754;28;20065;-61
2022/02/11 10:51:21;;;;;;;12.35;2.95;;;;;;;6.93;100.00;99172.44;4988842;28;20560;-62
2022/02/11 10:54:21;;;;;;;10.98;3.05;;;;;;;7.36;100.00;99173.50;4979858;28;20088;-62
2022/02/11 10:57:12;;;;;;;10.13;2.60;;;;;;;7.07;100.00;99159.03;4955420;28;20049;-60
2022/02/11 10:59:58;;;;;;;10.90;3.17;;;;;;;6.76;100.00;99132.31;4986115;28;20105;-64
2022/02/11 11:02:42;;;;;;;10.52;2.95;;;;;;;6.45;100.00;99116.97;4974351;28;20116;-61
2022/02/11 11:05:26;;;;;;;10.90;3.58;;;;;;;6.47;100.00;99176.63;4981937;28;20104;-60
2022/02/11 11:08:14;;;;;;;11.13;3.50;;;;;;;6.46;100.00;99174.91;4975956;28;20049;-62
2022/02/11 11:11:03;;;;;;;10.73;2.90;;;;;;;6.76;100.00;99169.19;4965623;28;20069;-63
2022/02/11 11:13:49;;;;;;;7.72;2.20;;;;;;;7.14;100.00;99187.06;4979152;28;20458;-62
2022/02/11 11:16:36;;;;;;;9.80;2.58;;;;;;;7.38;100.00;99179.63;4973813;28;20241;-60
2022/02/11 11:19:22;;;;;;;6.90;2.28;;;;;;;7.20;100.00;99192.25;4977484;28;20120;-61
2022/02/11 11:22:11;;;;;;;10.68;2.40;;;;;;;7.37;100.00;99183.19;4980578;28;20057;-60
2022/02/11 11:25:00;;;;;;;11.00;2.80;;;;;;;6.85;100.00;99126.88;4976645;28;20116;-61
2022/02/11 11:27:54;;;;;;;8.80;2.97;;;;;;;7.10;100.00;99186.25;4932598;28;20125;-62
2022/02/11 11:30:40;;;;;;;10.07;3.30;;;;;;;7.03;100.00;99175.81;4957761;28;20130;-61
2022/02/11 11:33:24;;;;;;;11.73;3.65;;;;;;;6.98;100.00;99182.91;4957603;28;20046;-62
2022/02/11 11:36:12;;;;;;;8.55;2.70;;;;;;;6.68;100.00;99181.59;4953271;28;20078;-62
2022/02/11 11:39:01;;;;;;;15.32;3.17;;;;;;;6.40;100.00;99177.59;4929176;28;20142;-66
2022/02/11 11:42:07;;;;;;;13.93;3.40;;;;;;;6.38;100.00;99184.66;4914894;28;20054;-61
2022/02/11 11:44:54;;;;;;;12.30;4.18;;;;;;;6.18;100.00;99184.03;4950737;28;20097;-61
2022/02/11 11:47:43;;;;;;;10.90;3.13;;;;;;;5.71;100.00;99149.47;4940091;28;20101;-61
2022/02/11 11:50:31;;;;;;;11.38;3.67;;;;;;;5.81;100.00;99177.41;4950506;28;20129;-62
2022/02/11 11:53:25;;;;;;;13.52;3.60;;;;;;;5.53;100.00;99136.47;4942018;28;20094;-62
2022/02/11 11:56:32;;;;;;;7.80;2.80;;;;;;;5.86;100.00;99191.41;4911729;28;20518;-62
2022/02/11 11:59:17;;;;;;;6.97;2.20;;;;;;;5.96;100.00;99193.03;4930840;28;20050;-63
2022/02/11 12:02:27;;;;;;;4.45;2.00;;;;;;;5.84;100.00;99189.66;4933629;28;20134;-61
2022/02/11 12:05:12;;;;;;;7.93;1.63;;;;;;;5.51;100.00;99151.41;4947582;28;20142;-63
2022/02/11 12:07:57;;;;;;;7.43;1.80;;;;;;;5.79;100.00;99194.06;4958987;28;20049;-62
2022/02/11 12:10:46;;;;;;;7.20;2.05;;;;;;;5.82;100.00;99194.09;4957696;28;20166;-65
2022/02/11 12:13:32;;;;;;;6.00;1.77;;;;;;;5.55;100.00;99161.03;4956862;28;20093;-63
2022/02/11 12:16:17;;;;;;;9.07;2.00;;;;;;;5.78;100.00;99189.72;4929676;28;20142;-62
2022/02/11 12:19:02;;;;;;;10.63;2.00;;;;;;;5.58;100.00;99137.31;4946908;28;20214;-63
2022/02/11 12:21:47;;;;;;;5.13;1.77;;;;;;;5.75;100.00;99173.94;4947026;28;20053;-64
2022/02/11 12:27:46;;;;;;;9.98;2.80;;;;;;;5.79;100.00;99194.06;4946060;28;20053;-62
2022/02/11 12:30:32;;;;;;;8.65;1.92;;;;;;;5.32;100.00;99159.47;4946835;28;20113;-63
2022/02/11 12:33:20;;;;;;;5.13;1.75;;;;;;;5.08;100.00;99148.28;4958310;28;20094;-63
2022/02/11 12:36:09;;;;;;;4.50;1.80;;;;;;;5.43;100.00;99181.28;4958865;28;20669;-64
2022/02/11 12:38:57;;;;;;;5.60;1.73;;;;;;;5.50;100.00;99191.72;4940591;28;20062;-63
2022/02/11 12:41:47;;;;;;;5.13;1.60;;;;;;;5.58;100.00;99194.28;4943321;28;20081;-64
2022/02/11 12:44:34;;;;;;;7.43;2.17;;;;;;;5.53;100.00;99191.69;4956969;28;20059;-65
2022/02/11 12:47:19;;;;;;;6.63;1.80;;;;;;;5.40;100.00;99202.34;4957455;28;20832;-71
2022/02/11 12:50:06;;;;;;;6.63;1.80;;;;;;;5.40;100.00;99200.59;4944256;28;20074;-58
2022/02/11 12:52:50;;;;;;;4.97;1.60;;;;;;;5.34;100.00;99202.41;4955600;28;20063;-68
2022/02/11 12:55:37;;;;;;;4.60;1.52;;;;;;;5.36;100.00;99203.25;4945601;28;20075;-60
2022/02/11 12:58:23;;;;;;;7.95;2.15;;;;;;;5.28;100.00;99205.94;4947929;28;20098;-67
2022/02/11 13:01:08;;;;;;;10.18;2.85;;;;;;;5.14;100.00;99165.75;4967224;28;20557;-61
2022/02/11 13:03:53;;;;;;;6.85;1.95;;;;;;;5.11;100.00;99188.56;4936683;29;20053;-59
2022/02/11 13:06:38;;;;;;;7.00;2.45;;;;;;;5.12;100.00;99201.69;4950400;28;20116;-65
2022/02/11 13:09:23;;;;;;;10.90;2.58;;;;;;;5.17;100.00;99209.56;4957729;28;20081;-62
2022/02/11 13:12:11;;;;;;;;;;;;;;;5.23;100.00;99213.00;4956470;28;20062;-60
2022/02/11 13:15:08;;;;;;;9.95;3.00;;;;;;;5.09;100.00;99212.22;4932498;28;19929;-60
2022/02/11 13:18:10;;;;;;;10.73;3.40;;;;;;;4.98;100.00;99208.78;4960027;28;20057;-62
2022/02/11 13:21:01;;;;;;;10.02;2.72;;;;;;;4.89;100.00;99207.13;4950113;28;20102;-65
2022/02/11 13:23:52;;;;;;;8.23;2.75;;;;;;;4.92;100.00;99214.09;4936958;29;20054;-66
2022/02/11 13:26:42;;;;;;;9.30;2.47;;;;;;;4.98;100.00;99220.19;4942331;28;20083;-64
2022/02/11 13:29:29;;;;;;;7.97;2.17;;;;;;;4.95;100.00;99204.44;4959531;28;20142;-63
2022/02/11 13:32:27;;;;;;;7.53;1.55;;;;;;;5.10;100.00;99215.72;4941568;28;20273;-61
2022/02/11 13:35:12;;;;;;;4.15;1.70;;;;;;;4.70;100.00;99173.97;4944043;28;20473;-63
2022/02/11 13:38:00;;;;;;;6.93;1.83;;;;;;;4.91;100.00;99221.09;4978889;28;20146;-62
2022/02/11 13:41:00;;;;;;;5.50;1.67;;;;;;;4.91;100.00;99222.88;4990085;28;20085;-63
2022/02/11 13:43:47;;;;;;;5.38;1.30;;;;;;;4.78;100.00;99226.44;4990213;28;20081;-60
2022/02/11 13:46:35;;;;;;;4.72;1.35;;;;;;;4.43;100.00;99178.50;4975719;28;20214;-63
2022/02/11 13:49:22;;;;;;;4.60;1.35;;;;;;;4.76;100.00;99225.59;4949930;29;20195;-64
2022/02/11 13:55:12;;;;;;;6.13;1.60;;;;;;;4.57;100.00;99226.56;4947088;28;20062;-61
2022/02/11 13:58:11;;;;;;;6.97;1.63;;;;;;;4.42;100.00;99184.63;4949763;28;20476;-63
2022/02/11 14:00:56;;;;;;;5.72;2.78;;;;;;;4.66;100.00;99235.25;4941778;28;20128;-62
2022/02/11 14:03:45;;;;;;;10.45;2.83;;;;;;;4.54;100.00;99239.69;4970853;28;20058;-63
2022/02/11 14:06:38;;;;;;;7.82;2.88;;;;;;;4.45;100.00;99238.00;4942224;28;20089;-63
2022/02/11 14:09:27;;;;;;;13.57;2.95;;;;;;;4.49;100.00;99242.34;4931912;28;20053;-61
2022/02/11 14:12:21;;;;;;;8.07;2.30;;;;;;;4.39;100.00;99251.13;4948667;29;20098;-63
2022/02/11 14:15:07;;;;;;;9.27;2.83;;;;;;;4.32;100.00;99243.31;4930350;28;20129;-64
2022/02/11 14:17:52;;;;;;;6.55;1.83;;;;;;;4.38;100.00;99252.00;4949015;28;20049;-64
2022/02/11 14:20:38;;;;;;;5.82;2.13;;;;;;;4.35;100.00;99249.41;4969123;28;20052;-62
2022/02/11 14:23:23;;;;;;;8.73;1.98;;;;;;;4.19;100.00;99246.81;4971964;28;20471;-62
2022/02/11 14:26:08;;;;;;;9.35;3.30;;;;;;;4.16;100.00;99263.44;4950275;28;20456;-61
2022/02/11 14:28:53;;;;;;;9.65;2.60;;;;;;;4.12;100.00;99245.97;4949713;29;20536;-65
2022/02/11 14:31:42;;;;;;;7.18;2.35;;;;;;;4.16;100.00;99254.72;4950036;29;20119;-62
2022/02/11 14:34:26;;;;;;;8.55;3.53;;;;;;;4.19;100.00;99265.19;4956092;28;20061;-63
2022/02/11 14:37:11;;;;;;;8.85;2.63;;;;;;;4.13;100.00;99258.22;4958970;28;20478;-63
2022/02/11 14:39:55;;;;;;;9.02;2.30;;;;;;;4.13;100.00;99260.84;4938377;28;20132;-62
2022/02/11 14:42:40;;;;;;;9.15;3.22;;;;;;;4.08;100.00;99251.25;4964286;28;20066;-62
2022/02/11 14:45:24;;;;;;;11.43;3.40;;;;;;;4.09;100.00;99266.09;4968095;28;20622;-65
2022/02/11 14:48:10;;;;;;;9.20;2.65;;;;;;;4.04;100.00;99268.72;4921946;29;20146;-65
2022/02/11 14:50:55;;;;;;;11.35;2.53;;;;;;;3.91;100.00;99234.66;4923362;28;20092;-62
2022/02/11 14:53:39;;;;;;;11.18;3.08;;;;;;;4.07;100.00;99275.72;4924021;28;20056;-63
2022/02/11 14:56:24;;;;;;;9.13;3.08;;;;;;;4.03;100.00;99279.22;4937068;28;20125;-62
2022/02/11 14:59:09;;;;;;;8.52;2.78;;;;;;;4.06;100.00;99289.72;4944487;28;20101;-64
2022/02/11 15:01:56;;;;;;;11.10;3.47;;;;;;;4.09;100.00;99290.59;4967955;28;20141;-62
2022/02/11 15:04:41;;;;;;;12.13;2.83;;;;;;;4.15;100.00;99295.81;4969125;28;20049;-63
2022/02/11 15:07:27;;;;;;;15.02;3.80;;;;;;;4.18;100.00;99300.19;4967423;28;20103;-65
2022/02/11 15:10:12;;;;;;;;;;;;;;;4.34;100.00;99297.53;4931707;28;20133;-63
2022/02/11 15:13:08;;;;;;;9.65;2.70;;;;;;;4.29;100.00;99301.03;4945302;29;19975;-62
2022/02/11 15:15:54;;;;;;;11.73;2.58;;;;;;;4.28;100.00;99296.66;4934042;29;20534;-66
2022/02/11 15:18:39;;;;;;;6.40;2.55;;;;;;;4.12;100.00;99281.84;4966324;28;20068;-62
2022/02/11 15:21:24;;;;;;;8.75;2.58;;;;;;;4.13;100.00;99313.31;4966730;28;20082;-63
2022/02/11 15:24:08;;;;;;;6.18;2.13;;;;;;;4.13;100.00;99318.56;4953765;28;20061;-63
2022/02/11 15:26:55;;;;;;;10.02;2.67;;;;;;;4.06;100.00;99311.56;4959720;28;20056;-61
2022/02/11 15:29:41;;;;;;;8.05;2.83;;;;;;;4.01;100.00;99312.47;4957591;28;20141;-65
2022/02/11 15:32:25;;;;;;;8.48;2.75;;;;;;;3.87;100.00;99307.22;4934088;29;20133;-63
2022/02/11 15:35:10;;;;;;;11.10;2.70;;;;;;;3.94;100.00;99313.34;4949216;28;20142;-64
2022/02/11 15:37:55;;;;;;;10.40;3.13;;;;;;;3.91;100.00;99310.72;4945648;28;20065;-63
2022/02/11 15:40:40;;;;;;;7.57;2.47;;;;;;;3.75;100.00;99273.16;4952150;28;20425;-63
2022/02/11 15:43:25;;;;;;;10.77;2.33;;;;;;;3.89;100.00;99320.34;4966951;28;20184;-62
2022/02/11 15:46:11;;;;;;;8.32;2.97;;;;;;;3.79;100.00;99313.34;4938779;28;20053;-65
2022/02/11 15:48:56;;;;;;;4.45;1.70;;;;;;;3.44;100.00;99260.94;4951517;28;20419;-63
2022/02/11 15:51:40;;;;;;;4.63;1.40;;;;;;;3.65;100.00;99305.47;4968939;28;20057;-62
2022/02/11 15:54:25;;;;;;;5.53;1.83;;;;;;;3.70;100.00;99313.34;4967503;28;20483;-65
2022/02/11 15:57:09;;;;;;;7.18;1.83;;;;;;;3.64;100.00;99311.59;4949416;29;20570;-62
2022/02/11 15:59:54;;;;;;;7.00;1.80;;;;;;;3.44;100.00;99270.56;4963019;28;20054;-64
2022/02/11 16:02:39;;;;;;;6.22;1.70;;;;;;;3.70;100.00;99316.84;4944503;28;20050;-62
2022/02/11 16:05:24;;;;;;;6.35;2.13;;;;;;;3.76;100.00;99321.22;4919383;29;20107;-62
2022/02/11 16:08:09;;;;;;;12.18;2.47;;;;;;;3.68;100.00;99326.44;4941084;28;20549;-63
2022/02/11 16:10:54;;;;;;;8.57;2.33;;;;;;;3.52;100.00;99274.06;4941693;28;20082;-62
2022/02/11 16:13:38;;;;;;;6.60;2.53;;;;;;;3.83;100.00;99328.19;4967964;28;20053;-62
2022/02/11 16:16:23;;;;;;;9.52;2.95;;;;;;;3.94;100.00;99334.31;4953418;28;20086;-65
2022/02/11 16:19:08;;;;;;;;;;;;;;;3.79;100.00;99335.19;4952190;28;20506;-64
2022/02/11 16:21:52;;;;;;;9.48;3.35;;;;;;;3.47;100.00;99254.81;4970094;28;20006;-62
2022/02/11 16:24:37;;;;;;;10.80;3.45;;;;;;;4.13;100.00;99343.91;4953582;28;20546;-63
2022/02/11 16:27:22;;;;;;;7.50;2.67;;;;;;;4.18;100.00;99343.03;5006799;28;20123;-63
2022/02/11 16:30:07;;;;;;;8.60;2.25;;;;;;;3.91;100.00;99289.72;5009891;28;20812;-63
2022/02/11 16:32:57;;;;;;;7.78;2.50;;;;;;;4.12;100.00;99334.31;5010067;28;20540;-61
2022/02/11 16:35:47;;;;;;;7.35;2.55;;;;;;;4.15;100.00;99344.78;4983099;28;20080;-62
2022/02/11 16:38:32;;;;;;;8.25;2.30;;;;;;;4.06;100.00;99352.66;5006742;28;20092;-64
2022/02/11 16:41:20;;;;;;;4.90;1.95;;;;;;;3.92;100.00;99351.81;4981793;28;20081;-62
2022/02/11 16:44:05;;;;;;;10.05;2.78;;;;;;;3.80;100.00;99343.94;4971156;28;20133;-63
2022/02/11 16:46:50;;;;;;;7.82;2.58;;;;;;;3.81;100.00;99350.94;4973194;28;20413;-65
2022/02/11 16:49:35;;;;;;;7.00;2.78;;;;;;;3.85;100.00;99348.31;4975895;28;20058;-63
2022/02/11 16:52:20;;;;;;;7.90;2.45;;;;;;;3.84;100.00;99335.22;4987448;28;20116;-65
2022/02/11 16:55:10;;;;;;;6.25;2.35;;;;;;;4.02;100.00;99337.81;4985582;28;20159;-62
2022/02/11 16:57:56;;;;;;;10.60;2.80;;;;;;;3.88;100.00;99343.06;4988308;28;20056;-61
2022/02/11 17:00:41;;;;;;;6.78;2.70;;;;;;;3.93;100.00;99345.69;4990431;28;20069;-62